Time;durP1;ratioP1;P1;durP2;ratioP2;P2;SDS_P1;SDS_P2;PMS_P1;PMS_P2;Temp;Humidity;BMP_temperature;BMP_pressure;BME280_temperature;BME280_humidity;BME280_pressure;Samples;Min_cycle;Max_cycle;Signal;HPM_P1;HPM_P2
2022/06/29 00:00:23;;;;;;;9.55;6.20;;;26.70;76.80;;;;;;6159827;28;80315;-69
2022/06/29 00:03:23;;;;;;;7.95;6.57;;;26.70;76.20;;;;;;6158994;28;80807;-68
2022/06/29 00:06:24;;;;;;;8.00;6.13;;;26.70;75.90;;;;;;6158068;28;80724;-68
2022/06/29 00:09:24;;;;;;;10.55;6.68;;;26.70;76.50;;;;;;6159299;28;80615;-68
2022/06/29 00:12:25;;;;;;;10.05;6.70;;;26.70;76.00;;;;;;6159462;28;80499;-68
2022/06/29 00:15:25;;;;;;;10.45;6.40;;;26.70;76.20;;;;;;6158754;28;80498;-68
2022/06/29 00:18:26;;;;;;;8.32;6.70;;;26.70;75.70;;;;;;6158463;28;80475;-67
2022/06/29 00:21:26;;;;;;;13.90;6.30;;;26.70;76.10;;;;;;6159430;28;80973;-67
2022/06/29 00:24:27;;;;;;;10.15;6.78;;;26.70;75.90;;;;;;6159340;28;80919;-67
2022/06/29 00:27:27;;;;;;;12.40;7.75;;;26.70;76.40;;;;;;6159122;28;81165;-67
2022/06/29 00:30:28;;;;;;;9.52;7.10;;;26.60;76.60;;;;;;6157579;28;83309;-68
2022/06/29 00:33:28;;;;;;;10.68;7.20;;;26.60;77.00;;;;;;6158862;28;80383;-67
2022/06/29 00:36:29;;;;;;;12.90;6.45;;;26.60;76.40;;;;;;6156358;28;80357;-68
2022/06/29 00:39:29;;;;;;;11.18;6.88;;;26.50;76.40;;;;;;6138797;28;80631;-68
2022/06/29 00:42:30;;;;;;;8.18;6.95;;;26.50;76.30;;;;;;6158496;28;81778;-68
2022/06/29 00:45:31;;;;;;;9.85;6.55;;;26.50;76.70;;;;;;6158672;28;80063;-68
2022/06/29 00:48:31;;;;;;;9.30;6.70;;;26.50;76.30;;;;;;6145755;28;81062;-67
2022/06/29 00:51:31;;;;;;;8.38;6.65;;;26.60;76.10;;;;;;6153721;28;81007;-68
2022/06/29 00:54:32;;;;;;;7.80;6.35;;;26.60;75.90;;;;;;6158998;28;80299;-68
2022/06/29 00:57:32;;;;;;;11.18;6.40;;;26.70;76.20;;;;;;6158851;28;80638;-68
2022/06/29 01:00:33;;;;;;;8.18;6.28;;;26.60;76.00;;;;;;6155680;28;83537;-68
2022/06/29 01:03:33;;;;;;;13.18;7.00;;;26.60;76.20;;;;;;6151151;28;80460;-67
2022/06/29 01:06:34;;;;;;;8.77;6.35;;;26.50;76.30;;;;;;6153963;28;80985;-67
2022/06/29 01:09:35;;;;;;;8.25;6.03;;;26.50;75.80;;;;;;6152434;28;80541;-67
2022/06/29 01:12:35;;;;;;;7.20;6.32;;;26.60;76.10;;;;;;6157826;28;80241;-67
2022/06/29 01:15:36;;;;;;;12.13;6.03;;;26.70;76.20;;;;;;6155691;28;81547;-67
2022/06/29 01:18:37;;;;;;;7.45;5.68;;;26.70;76.50;;;;;;6143443;28;81218;-67
2022/06/29 01:21:37;;;;;;;7.45;5.95;;;26.70;76.30;;;;;;6155395;28;80497;-67
2022/06/29 01:24:38;;;;;;;9.00;5.75;;;26.70;75.60;;;;;;6156448;28;80342;-67
2022/06/29 01:27:38;;;;;;;7.00;5.53;;;26.80;75.20;;;;;;6166929;28;80461;-67
2022/06/29 01:30:38;;;;;;;6.50;5.60;;;26.80;75.70;;;;;;6166253;28;80278;-67
2022/06/29 01:33:39;;;;;;;6.70;5.53;;;26.80;75.40;;;;;;6164410;28;80479;-67
2022/06/29 01:36:39;;;;;;;11.60;5.40;;;26.80;75.30;;;;;;6166992;28;80674;-67
2022/06/29 01:39:40;;;;;;;7.63;6.00;;;26.80;75.30;;;;;;6166209;28;80915;-67
2022/06/29 01:42:40;;;;;;;9.35;6.38;;;26.80;75.40;;;;;;6166162;28;80296;-68
2022/06/29 01:45:41;;;;;;;9.70;6.45;;;26.80;75.50;;;;;;6166654;28;80938;-68
2022/06/29 01:48:41;;;;;;;10.10;7.20;;;26.80;75.30;;;;;;6161915;28;87393;-68
2022/06/29 01:51:42;;;;;;;9.27;6.65;;;26.80;75.00;;;;;;6164754;28;80722;-67
2022/06/29 01:54:42;;;;;;;12.00;6.80;;;26.90;75.00;;;;;;6166419;28;80353;-67
2022/06/29 01:57:43;;;;;;;9.65;6.38;;;26.80;74.50;;;;;;6166551;28;80479;-67
2022/06/29 02:00:44;;;;;;;7.43;6.20;;;26.80;74.20;;;;;;6166346;28;79936;-67
2022/06/29 02:03:48;;;;;;;10.10;6.85;;;26.90;74.30;;;;;;6166426;28;80872;-67
2022/06/29 02:06:48;;;;;;;8.70;6.13;;;26.90;74.20;;;;;;6165883;28;80713;-67
2022/06/29 02:09:49;;;;;;;9.07;5.97;;;26.90;74.20;;;;;;6165785;28;80515;-67
2022/06/29 02:12:49;;;;;;;8.40;6.10;;;26.90;73.90;;;;;;6166782;28;80279;-67
2022/06/29 02:15:50;;;;;;;13.52;6.75;;;26.90;73.90;;;;;;6157333;28;80561;-67
2022/06/29 02:18:50;;;;;;;7.75;6.00;;;26.90;73.50;;;;;;6165599;28;80464;-66
2022/06/29 02:21:51;;;;;;;9.20;5.88;;;26.90;73.40;;;;;;6164169;28;80683;-67
2022/06/29 02:24:51;;;;;;;10.52;5.82;;;26.90;73.20;;;;;;6164638;28;80444;-68
2022/06/29 02:27:52;;;;;;;8.38;6.13;;;26.90;73.00;;;;;;6165242;28;82612;-68
2022/06/29 02:37:31;;;;;;;8.93;5.55;;;26.80;72.60;;;;;;6154284;28;80762;-67
2022/06/29 02:40:31;;;;;;;7.68;5.95;;;26.80;72.20;;;;;;6161095;28;80417;-67
2022/06/29 02:43:32;;;;;;;11.43;5.93;;;26.80;72.10;;;;;;6161244;28;80630;-67
2022/06/29 02:46:33;;;;;;;9.38;6.15;;;26.80;72.00;;;;;;6161521;28;80869;-67
2022/06/29 02:49:33;;;;;;;7.78;5.32;;;26.80;71.80;;;;;;6160859;28;80067;-66
2022/06/29 02:52:34;;;;;;;8.68;5.43;;;26.80;71.40;;;;;;6156427;28;80235;-67
2022/06/29 02:55:34;;;;;;;10.18;5.80;;;26.80;71.20;;;;;;6158339;28;80868;-66
2022/06/29 02:58:35;;;;;;;7.78;5.75;;;26.80;71.20;;;;;;6158746;28;80360;-67
2022/06/29 03:01:35;;;;;;;11.35;6.05;;;26.80;70.70;;;;;;6160737;28;80445;-67
2022/06/29 03:04:36;;;;;;;9.45;5.80;;;26.70;70.80;;;;;;6160845;28;80707;-67
2022/06/29 03:07:36;;;;;;;11.10;5.90;;;26.70;70.50;;;;;;6156562;28;80329;-67
2022/06/29 03:10:37;;;;;;;7.43;5.70;;;26.70;70.80;;;;;;6160368;28;80225;-68
2022/06/29 03:13:37;;;;;;;6.43;5.35;;;26.70;70.40;;;;;;6150419;28;80456;-67
2022/06/29 03:16:38;;;;;;;8.45;5.40;;;26.70;70.30;;;;;;6151925;28;81205;-67
2022/06/29 03:19:38;;;;;;;12.50;5.85;;;26.70;70.40;;;;;;6158905;28;80897;-67
2022/06/29 03:22:39;;;;;;;8.40;5.55;;;26.70;70.40;;;;;;6156632;28;80580;-67
2022/06/29 03:25:39;;;;;;;9.07;5.15;;;26.70;70.50;;;;;;6160271;28;80412;-67
2022/06/29 03:28:40;;;;;;;10.48;5.68;;;26.70;70.40;;;;;;6159416;28;80496;-68
2022/06/29 03:31:40;;;;;;;8.35;5.35;;;26.70;70.00;;;;;;6156483;28;80086;-68
2022/06/29 03:34:41;;;;;;;10.95;5.72;;;26.70;70.30;;;;;;6159249;28;80689;-69
2022/06/29 03:37:41;;;;;;;10.45;6.93;;;26.70;70.30;;;;;;6158744;28;80833;-69
2022/06/29 03:40:42;;;;;;;8.80;6.47;;;26.70;70.20;;;;;;6159313;28;80885;-69
2022/06/29 03:43:42;;;;;;;7.95;5.75;;;26.70;70.00;;;;;;6159576;28;80170;-69
2022/06/29 03:46:42;;;;;;;8.05;5.70;;;26.70;69.70;;;;;;6153583;28;82362;-70
2022/06/29 03:49:43;;;;;;;9.52;5.72;;;26.70;69.50;;;;;;6159391;28;80536;-69
2022/06/29 03:52:43;;;;;;;10.48;6.28;;;26.70;70.50;;;;;;6157374;28;80704;-68
2022/06/29 03:55:44;;;;;;;9.02;6.47;;;26.70;69.90;;;;;;6153739;28;81763;-68
2022/06/29 03:58:44;;;;;;;10.90;6.32;;;26.70;70.00;;;;;;6155722;28;81709;-68
2022/06/29 04:01:46;;;;;;;9.60;6.47;;;26.70;69.80;;;;;;6155112;28;83014;-73
2022/06/29 04:04:46;;;;;;;9.68;6.18;;;26.70;69.90;;;;;;6165910;28;80436;-69
2022/06/29 04:07:47;;;;;;;12.50;6.07;;;26.70;70.60;;;;;;6159684;28;80893;-67
2022/06/29 04:10:47;;;;;;;12.05;6.07;;;26.70;69.60;;;;;;6159481;28;81340;-66
2022/06/29 04:13:48;;;;;;;11.15;6.20;;;26.70;69.50;;;;;;6159074;28;80524;-66
2022/06/29 04:16:48;;;;;;;14.32;7.38;;;26.70;69.90;;;;;;6155700;28;80330;-66
2022/06/29 04:19:51;;;;;;;16.83;7.15;;;26.80;69.80;;;;;;6154455;28;80398;-65
2022/06/29 04:22:51;;;;;;;9.73;6.47;;;26.80;70.00;;;;;;6159180;28;80508;-68
2022/06/29 04:25:52;;;;;;;11.73;6.53;;;26.80;69.80;;;;;;6155282;28;80369;-67
2022/06/29 04:28:52;;;;;;;12.70;6.30;;;26.80;70.00;;;;;;6159987;28;80504;-68
2022/06/29 04:31:52;;;;;;;13.10;7.47;;;26.80;69.80;;;;;;6159287;28;80533;-67
2022/06/29 04:34:53;;;;;;;10.77;7.45;;;26.80;69.90;;;;;;6159726;28;80705;-67
2022/06/29 04:37:53;;;;;;;10.10;7.32;;;26.80;70.10;;;;;;6153694;28;80365;-67
2022/06/29 04:40:54;;;;;;;11.02;8.13;;;26.80;70.00;;;;;;6149843;28;80352;-68
2022/06/29 04:43:54;;;;;;;11.27;7.63;;;26.80;70.10;;;;;;6155874;28;81112;-67
2022/06/29 04:46:55;;;;;;;13.75;8.40;;;26.80;70.00;;;;;;6153411;28;80565;-67
2022/06/29 04:49:55;;;;;;;13.27;8.25;;;26.80;69.90;;;;;;6153475;28;80927;-67
2022/06/29 04:52:56;;;;;;;14.63;8.77;;;26.80;70.00;;;;;;6152921;28;80256;-67
2022/06/29 04:55:56;;;;;;;15.90;8.57;;;26.80;70.00;;;;;;6154707;28;80334;-73
2022/06/29 04:58:57;;;;;;;12.30;8.63;;;26.90;70.10;;;;;;6159303;28;80299;-65
2022/06/29 05:01:58;;;;;;;14.80;7.93;;;26.90;70.30;;;;;;6159460;28;80806;-67
2022/06/29 05:04:58;;;;;;;14.25;8.07;;;26.80;70.40;;;;;;6158842;28;80516;-68
2022/06/29 05:07:58;;;;;;;17.25;9.32;;;26.80;70.30;;;;;;6159056;28;81002;-66
2022/06/29 05:10:59;;;;;;;15.85;9.18;;;26.80;70.10;;;;;;6158236;28;80691;-66
2022/06/29 05:14:00;;;;;;;12.90;8.13;;;26.90;70.30;;;;;;6158865;28;81009;-67
2022/06/29 05:17:00;;;;;;;13.93;9.02;;;26.90;70.00;;;;;;6158029;28;80475;-67
2022/06/29 05:20:01;;;;;;;14.10;8.52;;;26.90;70.00;;;;;;6158227;28;80545;-66
2022/06/29 05:23:01;;;;;;;13.52;9.40;;;26.90;69.80;;;;;;6158615;28;80319;-66
2022/06/29 05:26:02;;;;;;;13.02;9.43;;;26.80;69.80;;;;;;6148829;28;80419;-63
2022/06/29 05:29:02;;;;;;;14.45;10.00;;;26.80;69.80;;;;;;6157455;28;80679;-67
2022/06/29 05:32:02;;;;;;;17.05;10.68;;;26.70;70.40;;;;;;6156073;28;82812;-64
2022/06/29 05:35:03;;;;;;;16.20;10.55;;;26.70;70.90;;;;;;6142282;28;84976;-63
2022/06/29 05:38:03;;;;;;;17.13;10.85;;;26.70;70.90;;;;;;6145935;28;83120;-64
2022/06/29 05:41:04;;;;;;;15.13;10.70;;;26.70;71.30;;;;;;6137970;28;83455;-64
2022/06/29 05:44:04;;;;;;;16.42;9.95;;;26.70;71.60;;;;;;6143382;28;84317;-64
2022/06/29 05:47:05;;;;;;;14.38;10.13;;;26.60;71.20;;;;;;6140034;28;85120;-64
2022/06/29 05:50:09;;;;;;;13.60;10.10;;;26.60;72.10;;;;;;6134142;28;83007;-64
2022/06/29 05:53:10;;;;;;;13.25;10.07;;;26.60;71.70;;;;;;6139319;28;83331;-64
2022/06/29 05:56:11;;;;;;;14.15;10.52;;;26.60;71.60;;;;;;6140734;28;82827;-64
2022/06/29 05:59:11;;;;;;;14.77;10.93;;;26.60;71.70;;;;;;6138465;28;83332;-65
2022/06/29 06:02:11;;;;;;;12.27;9.40;;;26.60;71.90;;;;;;6141717;28;83028;-64
2022/06/29 06:05:12;;;;;;;21.83;10.15;;;26.60;71.90;;;;;;6143521;28;82814;-65
2022/06/29 06:08:15;;;;;;;13.98;10.60;;;26.60;71.70;;;;;;6138445;28;83014;-70
2022/06/29 06:11:16;;;;;;;15.52;10.63;;;26.60;72.10;;;;;;6136695;28;84158;-64
2022/06/29 06:14:16;;;;;;;18.00;10.40;;;26.60;71.90;;;;;;6139242;28;83205;-64
2022/06/29 06:17:17;;;;;;;14.30;10.57;;;26.50;71.60;;;;;;6139605;28;83368;-64
2022/06/29 06:20:17;;;;;;;16.60;11.85;;;26.60;72.10;;;;;;6139313;28;83122;-64
2022/06/29 06:23:18;;;;;;;13.18;10.23;;;26.60;72.50;;;;;;6143439;28;83289;-64
2022/06/29 06:26:18;;;;;;;17.58;11.73;;;26.60;71.90;;;;;;6151587;28;85071;-64
2022/06/29 06:29:19;;;;;;;14.32;10.73;;;26.60;72.10;;;;;;6151803;28;83105;-64
2022/06/29 06:32:19;;;;;;;17.50;10.82;;;26.60;72.30;;;;;;6152652;28;83801;-64
2022/06/29 06:35:20;;;;;;;14.90;10.13;;;26.60;72.10;;;;;;6153938;28;83002;-64
2022/06/29 06:38:20;;;;;;;16.38;12.23;;;26.60;72.50;;;;;;6155418;28;84167;-65
2022/06/29 06:41:21;;;;;;;19.30;11.25;;;26.60;71.80;;;;;;6157280;28;83041;-64
2022/06/29 06:44:21;;;;;;;15.32;10.25;;;26.60;72.00;;;;;;6154695;28;83289;-68
2022/06/29 06:47:22;;;;;;;19.17;11.70;;;26.60;72.00;;;;;;6158533;28;83346;-64
2022/06/29 06:50:22;;;;;;;16.88;11.45;;;26.60;72.30;;;;;;6159169;28;82851;-64
2022/06/29 06:53:23;;;;;;;16.27;10.52;;;26.60;72.30;;;;;;6166467;28;83299;-64
2022/06/29 06:56:23;;;;;;;15.52;10.75;;;26.60;72.40;;;;;;6159427;28;82856;-63
2022/06/29 06:59:24;;;;;;;17.48;11.73;;;26.60;72.70;;;;;;6158430;28;82982;-64
2022/06/29 07:02:24;;;;;;;14.30;10.85;;;26.60;72.90;;;;;;6156977;28;83423;-63
2022/06/29 07:05:25;;;;;;;14.27;10.38;;;26.60;72.20;;;;;;6158093;28;83043;-64
2022/06/29 07:08:26;;;;;;;16.10;11.25;;;26.70;72.20;;;;;;6155899;28;84690;-64
2022/06/29 07:11:26;;;;;;;20.45;10.80;;;26.70;72.30;;;;;;6158970;28;82906;-64
2022/06/29 07:14:27;;;;;;;20.08;11.88;;;26.70;72.50;;;;;;6157231;28;84272;-65
2022/06/29 07:17:27;;;;;;;20.75;11.27;;;26.70;73.10;;;;;;6155992;28;85672;-65
2022/06/29 07:20:28;;;;;;;19.27;11.70;;;26.70;72.80;;;;;;6158298;28;83608;-68
2022/06/29 07:23:47;;;;;;;23.23;11.32;;;26.70;72.70;;;;;;6154302;28;83086;-69
2022/06/29 07:26:48;;;;;;;18.50;11.52;;;26.70;72.40;;;;;;6146679;28;83535;-69
2022/06/29 07:29:52;;;;;;;14.57;10.75;;;26.80;72.50;;;;;;6157371;28;83080;-66
2022/06/29 07:33:11;;;;;;;17.63;11.63;;;26.80;72.60;;;;;;6157335;28;87147;-69
2022/06/29 07:36:12;;;;;;;13.52;10.27;;;26.90;73.10;;;;;;6152773;28;84445;-69
2022/06/29 07:39:12;;;;;;;20.95;10.88;;;26.90;72.20;;;;;;6152194;28;83546;-69
2022/06/29 07:42:13;;;;;;;12.13;9.50;;;26.90;73.80;;;;;;6156998;28;83321;-69
2022/06/29 07:45:13;;;;;;;15.00;9.40;;;27.00;73.10;;;;;;6160716;28;83513;-69
2022/06/29 07:48:14;;;;;;;14.25;10.30;;;27.00;72.70;;;;;;6160232;28;80399;-70
2022/06/29 07:51:14;;;;;;;16.05;10.93;;;27.00;71.50;;;;;;6157238;28;83636;-69
2022/06/29 07:54:15;;;;;;;15.27;11.00;;;27.00;71.70;;;;;;6157116;28;83542;-69
2022/06/29 07:57:15;;;;;;;16.17;10.27;;;27.00;71.30;;;;;;6157103;28;83008;-69
2022/06/29 08:00:16;;;;;;;14.00;10.05;;;27.10;71.60;;;;;;6157300;28;83393;-69
2022/06/29 08:03:16;;;;;;;17.50;10.27;;;27.10;71.50;;;;;;6149418;28;83370;-69
2022/06/29 08:06:17;;;;;;;15.15;9.98;;;27.10;71.20;;;;;;6153552;28;83056;-69
2022/06/29 08:09:17;;;;;;;16.38;10.85;;;27.10;72.00;;;;;;6156696;28;84484;-68
2022/06/29 08:12:18;;;;;;;18.73;11.90;;;27.00;72.80;;;;;;6156610;28;83958;-69
2022/06/29 08:15:19;;;;;;;16.73;10.85;;;26.90;73.70;;;;;;6156272;28;84291;-67
2022/06/29 08:18:19;;;;;;;14.88;10.68;;;26.90;73.50;;;;;;6156251;28;83250;-68
2022/06/29 08:21:20;;;;;;;16.90;10.82;;;26.90;73.70;;;;;;6154900;28;83221;-68
2022/06/29 08:24:20;;;;;;;15.73;10.55;;;27.00;73.80;;;;;;6156894;28;83049;-68
2022/06/29 08:27:22;;;;;;;14.98;11.32;;;27.10;73.80;;;;;;6156334;28;82930;-68
2022/06/29 08:30:22;;;;;;;14.93;10.13;;;27.10;73.40;;;;;;6156171;28;82868;-68
2022/06/29 08:33:22;;;;;;;13.25;10.00;;;27.10;73.00;;;;;;6156490;28;83449;-67
2022/06/29 08:36:23;;;;;;;22.92;10.27;;;27.10;72.90;;;;;;6155531;28;82931;-68
2022/06/29 08:39:23;;;;;;;12.88;10.00;;;27.20;73.30;;;;;;6155792;28;82897;-68
2022/06/29 08:42:24;;;;;;;11.90;9.60;;;27.30;73.50;;;;;;6155962;28;90692;-67
2022/06/29 08:45:24;;;;;;;11.23;9.07;;;27.30;72.20;;;;;;6159369;28;83003;-67
2022/06/29 08:48:25;;;;;;;12.30;10.40;;;27.30;73.00;;;;;;6159364;28;80498;-68
2022/06/29 08:51:26;;;;;;;11.82;9.13;;;27.40;72.20;;;;;;6156121;28;82791;-67
2022/06/29 08:54:26;;;;;;;14.63;10.23;;;27.40;72.40;;;;;;6159506;28;83427;-67
2022/06/29 08:57:27;;;;;;;11.68;9.73;;;27.40;71.70;;;;;;6156178;28;83031;-68
2022/06/29 09:00:28;;;;;;;12.20;9.07;;;27.50;72.00;;;;;;6159317;28;81768;-69
2022/06/29 09:03:28;;;;;;;10.57;9.43;;;27.40;72.20;;;;;;6159064;28;80253;-69
2022/06/29 09:06:28;;;;;;;11.20;8.77;;;27.40;72.40;;;;;;6159159;28;80399;-68
2022/06/29 09:09:29;;;;;;;15.23;9.40;;;27.50;72.10;;;;;;6145436;28;80310;-68
2022/06/29 09:12:30;;;;;;;17.00;11.32;;;27.50;71.90;;;;;;6159258;28;81679;-68
2022/06/29 09:15:31;;;;;;;14.00;10.23;;;27.50;72.80;;;;;;6156323;28;82991;-68
2022/06/29 09:18:31;;;;;;;12.15;9.65;;;27.50;73.40;;;;;;6154134;28;83297;-69
2022/06/29 09:21:32;;;;;;;11.60;9.32;;;27.50;74.20;;;;;;6160249;28;83369;-70
2022/06/29 09:24:33;;;;;;;11.48;9.20;;;27.30;69.70;;;;;;6146307;28;80228;-69
2022/06/29 09:27:33;;;;;;;17.88;9.70;;;26.90;66.50;;;;;;6158011;28;80393;-68
2022/06/29 09:30:34;;;;;;;15.82;10.00;;;26.70;64.20;;;;;;6158374;28;80380;-70
2022/06/29 09:33:35;;;;;;;14.75;9.48;;;26.40;61.70;;;;;;6155866;28;83432;-69
2022/06/29 09:36:35;;;;;;;12.88;10.15;;;26.20;60.40;;;;;;6153145;28;84124;-71
2022/06/29 09:39:38;;;;;;;15.35;9.88;;;26.20;68.10;;;;;;6141226;28;82954;-70
2022/06/29 09:42:40;;;;;;;13.50;10.38;;;26.40;69.70;;;;;;6142271;28;86088;-69
2022/06/29 09:45:43;;;;;;;12.60;9.27;;;26.60;70.40;;;;;;6152978;28;83034;-69
2022/06/29 09:48:43;;;;;;;16.42;10.38;;;26.70;70.70;;;;;;6161863;28;84234;-68
2022/06/29 09:51:44;;;;;;;13.40;10.05;;;26.80;69.50;;;;;;6159961;28;82898;-69
2022/06/29 09:54:44;;;;;;;13.27;9.48;;;26.70;67.20;;;;;;6160003;28;83018;-68
2022/06/29 09:57:45;;;;;;;14.55;11.43;;;26.50;64.70;;;;;;6150374;28;82715;-68
2022/06/29 10:04:05;;;;;;;14.93;12.05;;;26.30;62.70;;;;;;6147287;28;83398;-67
2022/06/29 10:07:06;;;;;;;17.05;11.60;;;26.20;62.90;;;;;;6153451;28;82638;-66
2022/06/29 10:10:07;;;;;;;15.90;11.15;;;26.00;62.30;;;;;;6157434;28;84002;-66
2022/06/29 10:16:27;;;;;;;15.10;10.18;;;25.90;62.60;;;;;;6153029;28;83642;-67
2022/06/29 10:19:27;;;;;;;15.32;10.55;;;25.80;61.70;;;;;;6151486;28;83532;-66
2022/06/29 10:22:29;;;;;;;14.45;10.75;;;25.80;61.50;;;;;;6152981;28;83983;-66
2022/06/29 10:25:29;;;;;;;16.33;11.40;;;25.70;61.50;;;;;;6159152;28;83512;-67
2022/06/29 10:28:30;;;;;;;18.75;12.02;;;25.70;61.60;;;;;;6155144;28;84117;-67
2022/06/29 10:31:30;;;;;;;14.55;10.90;;;25.70;61.80;;;;;;6147095;28;82916;-67
2022/06/29 10:34:31;;;;;;;15.13;12.27;;;25.70;61.90;;;;;;6150952;28;83102;-72
2022/06/29 10:37:31;;;;;;;17.88;12.35;;;25.70;69.50;;;;;;6156198;28;82747;-68
2022/06/29 10:40:32;;;;;;;15.10;11.82;;;25.90;70.00;;;;;;6151143;28;83245;-68
2022/06/29 10:43:32;;;;;;;18.73;12.10;;;26.20;73.10;;;;;;6154248;28;82993;-67
2022/06/29 10:46:33;;;;;;;17.02;11.90;;;26.40;72.30;;;;;;6154189;28;83508;-68
2022/06/29 10:49:33;;;;;;;16.33;12.32;;;26.50;72.50;;;;;;6156589;28;82736;-67
2022/06/29 10:52:34;;;;;;;14.52;11.65;;;26.70;72.60;;;;;;6158110;28;83692;-67
2022/06/29 10:55:34;;;;;;;17.88;11.75;;;26.80;71.80;;;;;;6154268;28;83954;-67
2022/06/29 10:58:35;;;;;;;16.50;10.43;;;26.90;71.80;;;;;;6139719;28;84612;-68
2022/06/29 11:01:35;;;;;;;16.02;11.65;;;27.10;71.90;;;;;;6158922;28;83824;-68
2022/06/29 11:04:36;;;;;;;14.90;11.85;;;27.10;71.70;;;;;;6159241;28;83419;-68
2022/06/29 11:14:02;;;;;;;19.63;10.68;;;27.40;71.00;;;;;;6158761;28;84138;-66
2022/06/29 11:17:03;;;;;;;17.30;11.27;;;27.40;70.60;;;;;;6151464;28;84135;-72
2022/06/29 11:20:03;;;;;;;11.75;9.40;;;27.50;70.90;;;;;;6152931;28;84081;-67
2022/06/29 11:23:04;;;;;;;14.32;10.05;;;27.50;71.90;;;;;;6161560;28;84195;-71
2022/06/29 11:26:05;;;;;;;15.50;10.85;;;27.50;71.90;;;;;;6160970;28;83182;-67
2022/06/29 11:29:05;;;;;;;14.07;9.88;;;27.60;72.30;;;;;;6159338;28;89339;-68
2022/06/29 11:32:06;;;;;;;11.80;9.90;;;27.40;69.30;;;;;;6166341;28;82907;-66
2022/06/29 11:35:06;;;;;;;10.77;8.77;;;27.00;65.90;;;;;;6165671;28;81581;-67
2022/06/29 11:38:07;;;;;;;12.82;9.75;;;26.90;64.30;;;;;;6161478;28;81075;-67
2022/06/29 11:41:08;;;;;;;11.18;8.57;;;26.70;62.80;;;;;;6161458;28;81076;-68
2022/06/29 11:44:08;;;;;;;11.13;9.43;;;26.50;62.10;;;;;;6159780;28;81170;-67
2022/06/29 11:47:08;;;;;;;13.88;9.15;;;26.40;61.60;;;;;;6160905;28;80312;-66
2022/06/29 11:50:09;;;;;;;10.65;9.10;;;26.20;61.30;;;;;;6160746;28;81222;-66
2022/06/29 11:53:09;;;;;;;14.00;9.15;;;26.20;61.30;;;;;;6155690;28;81746;-65
2022/06/29 11:56:10;;;;;;;11.30;9.20;;;26.10;61.10;;;;;;6153506;28;80612;-67
2022/06/29 11:59:15;;;;;;;10.60;8.70;;;26.00;61.00;;;;;;6151841;28;81566;-67
2022/06/29 12:02:15;;;;;;;15.75;9.88;;;25.90;60.90;;;;;;6160906;28;80423;-67
2022/06/29 12:05:16;;;;;;;11.18;8.75;;;25.90;60.50;;;;;;6144705;28;80472;-66
2022/06/29 12:08:16;;;;;;;20.48;9.15;;;25.80;60.50;;;;;;6156805;28;80205;-66
2022/06/29 12:11:17;;;;;;;20.08;8.82;;;25.70;60.30;;;;;;6158593;28;80303;-69
2022/06/29 12:14:17;;;;;;;13.07;8.82;;;25.60;61.10;;;;;;6160765;28;80541;-71
2022/06/29 12:17:18;;;;;;;12.52;8.85;;;25.80;66.30;;;;;;6159181;28;81201;-70
2022/06/29 12:20:18;;;;;;;22.75;10.80;;;26.10;66.80;;;;;;6161077;28;80003;-68
2022/06/29 12:23:19;;;;;;;24.58;11.95;;;26.40;68.20;;;;;;6157374;28;83010;-66
2022/06/29 12:26:19;;;;;;;21.30;11.65;;;26.60;71.50;;;;;;6156912;28;83056;-67
2022/06/29 12:29:20;;;;;;;16.80;10.57;;;26.70;71.40;;;;;;6153484;28;83265;-67
2022/06/29 12:32:20;;;;;;;13.85;10.20;;;26.60;66.10;;;;;;6149116;28;84676;-70
2022/06/29 12:35:21;;;;;;;13.05;9.20;;;26.30;63.50;;;;;;6157391;28;83400;-68
2022/06/29 12:38:21;;;;;;;19.10;9.23;;;26.10;62.10;;;;;;6160830;28;82771;-68
2022/06/29 12:41:22;;;;;;;16.65;9.77;;;26.00;61.40;;;;;;6159589;28;80871;-70
2022/06/29 12:44:22;;;;;;;14.57;9.35;;;25.90;61.00;;;;;;6160661;28;80385;-68
2022/06/29 12:47:23;;;;;;;14.45;9.57;;;25.90;61.20;;;;;;6159303;28;81274;-68
2022/06/29 12:50:24;;;;;;;11.02;9.10;;;25.70;61.10;;;;;;6159865;28;81876;-71
2022/06/29 12:53:24;;;;;;;13.32;9.25;;;25.70;60.90;;;;;;6159907;28;80597;-67
2022/06/29 12:56:25;;;;;;;17.00;9.43;;;25.70;60.50;;;;;;6154337;28;80466;-63
2022/06/29 12:59:25;;;;;;;17.40;9.10;;;25.60;61.10;;;;;;6156174;28;80623;-66
2022/06/29 13:02:26;;;;;;;12.40;7.97;;;25.60;60.70;;;;;;6151735;28;82002;-64
2022/06/29 13:05:26;;;;;;;12.38;9.13;;;25.70;66.80;;;;;;6159891;28;80540;-65
2022/06/29 13:08:27;;;;;;;16.73;9.35;;;26.10;67.00;;;;;;6158361;28;81869;-64
2022/06/29 13:11:27;;;;;;;11.55;8.55;;;26.30;67.50;;;;;;6158081;28;81180;-65
2022/06/29 13:14:27;;;;;;;14.70;9.18;;;26.50;67.60;;;;;;6159752;28;80377;-65
2022/06/29 13:17:28;;;;;;;11.98;9.18;;;26.70;66.90;;;;;;6157827;28;82541;-64
2022/06/29 13:20:29;;;;;;;21.60;9.82;;;26.80;66.90;;;;;;6153961;28;80618;-65
2022/06/29 13:23:29;;;;;;;12.02;8.30;;;27.00;67.10;;;;;;6155325;28;80732;-66
2022/06/29 13:26:30;;;;;;;15.90;9.60;;;27.10;67.90;;;;;;6156648;28;82781;-64
2022/06/29 13:29:30;;;;;;;15.90;10.52;;;27.10;67.50;;;;;;6156607;28;80271;-64
2022/06/29 13:32:31;;;;;;;18.60;10.60;;;27.20;67.90;;;;;;6154934;28;83017;-64
2022/06/29 13:35:31;;;;;;;18.15;10.40;;;27.40;68.20;;;;;;6149036;28;82801;-65
2022/06/29 13:38:31;;;;;;;19.10;10.13;;;27.40;68.90;;;;;;6155834;28;82958;-65
2022/06/29 13:41:32;;;;;;;17.30;10.38;;;27.50;68.50;;;;;;6153874;28;84129;-67
2022/06/29 13:44:33;;;;;;;14.85;10.13;;;27.60;68.20;;;;;;6145179;28;84101;-66
2022/06/29 13:47:33;;;;;;;12.43;9.95;;;27.60;68.40;;;;;;6140808;28;83328;-66
2022/06/29 13:50:33;;;;;;;20.67;10.60;;;27.60;69.00;;;;;;6145061;28;84102;-65
2022/06/29 13:53:34;;;;;;;14.30;9.95;;;27.70;68.50;;;;;;6145868;28;82736;-65
2022/06/29 13:56:35;;;;;;;15.38;10.30;;;27.70;68.40;;;;;;6147924;28;83414;-65
2022/06/29 13:59:35;;;;;;;13.80;9.82;;;27.70;68.60;;;;;;6143240;28;83459;-65
2022/06/29 14:02:36;;;;;;;16.63;10.02;;;27.80;68.60;;;;;;6150884;28;82770;-65
2022/06/29 14:05:37;;;;;;;19.98;9.68;;;27.80;68.30;;;;;;6139063;28;82926;-66
2022/06/29 14:08:37;;;;;;;14.32;9.55;;;27.90;68.50;;;;;;6139718;28;83907;-67
2022/06/29 14:11:38;;;;;;;12.10;9.68;;;27.90;68.60;;;;;;6142550;28;80738;-65
2022/06/29 14:14:38;;;;;;;14.82;9.98;;;27.90;69.00;;;;;;6140904;28;80428;-65
2022/06/29 14:17:39;;;;;;;20.02;10.85;;;27.90;68.70;;;;;;6138447;28;83101;-65
2022/06/29 14:20:40;;;;;;;17.75;10.43;;;27.90;69.10;;;;;;6138796;28;83228;-66
2022/06/29 14:23:40;;;;;;;12.80;9.07;;;27.90;69.30;;;;;;6135487;28;83201;-65
2022/06/29 14:26:41;;;;;;;14.18;9.00;;;27.90;68.80;;;;;;6150755;28;82957;-65
2022/06/29 14:29:41;;;;;;;11.40;8.85;;;27.90;68.80;;;;;;6157190;28;80421;-64
2022/06/29 14:32:43;;;;;;;15.57;9.32;;;28.00;69.00;;;;;;6147224;28;80427;-65
2022/06/29 14:35:45;;;;;;;12.70;8.57;;;28.00;69.30;;;;;;6162326;28;81459;-65
2022/06/29 14:38:46;;;;;;;13.20;9.20;;;28.00;69.00;;;;;;6159467;28;80290;-66
2022/06/29 14:41:46;;;;;;;10.02;8.20;;;28.00;69.30;;;;;;6151680;28;80057;-66
2022/06/29 14:44:47;;;;;;;19.27;9.95;;;28.00;69.40;;;;;;6155728;28;81446;-64
2022/06/29 14:47:48;;;;;;;13.60;9.27;;;28.00;69.30;;;;;;6157868;28;80311;-65
2022/06/29 14:50:48;;;;;;;12.35;8.80;;;28.10;70.30;;;;;;6155180;28;80355;-63
2022/06/29 14:53:49;;;;;;;10.77;8.30;;;28.10;70.20;;;;;;6152943;28;80981;-65
2022/06/29 14:56:49;;;;;;;9.82;8.55;;;28.10;70.40;;;;;;6160053;28;80570;-65
2022/06/29 14:59:51;;;;;;;14.18;9.40;;;28.10;70.20;;;;;;6155964;28;80627;-65
2022/06/29 15:02:51;;;;;;;12.00;8.85;;;28.20;70.50;;;;;;6158372;28;80409;-67
2022/06/29 15:05:52;;;;;;;19.63;9.35;;;28.10;70.10;;;;;;6160473;28;85813;-66
2022/06/29 15:08:52;;;;;;;10.82;8.38;;;28.20;70.40;;;;;;6157680;28;80186;-69
2022/06/29 15:11:54;;;;;;;14.25;8.32;;;28.20;69.80;;;;;;6155507;28;81114;-65
2022/06/29 15:14:55;;;;;;;12.63;8.57;;;28.20;69.30;;;;;;6155575;28;81550;-65
2022/06/29 15:17:55;;;;;;;17.05;9.35;;;28.10;69.00;;;;;;6161299;28;81530;-64
2022/06/29 15:20:56;;;;;;;12.35;8.48;;;28.20;69.80;;;;;;6159037;28;80179;-64
2022/06/29 15:23:56;;;;;;;14.20;9.07;;;28.20;69.00;;;;;;6158943;28;81447;-64
2022/06/29 15:26:57;;;;;;;15.27;9.25;;;28.20;68.70;;;;;;6152537;28;80928;-64
2022/06/29 15:29:57;;;;;;;15.98;9.02;;;28.10;69.50;;;;;;6159919;28;82421;-66
2022/06/29 15:32:58;;;;;;;13.55;9.10;;;28.10;68.70;;;;;;6160540;28;80911;-65
2022/06/29 15:39:17;;;;;;;14.40;8.90;;;28.10;69.20;;;;;;6161762;28;80497;-64
2022/06/29 15:42:18;;;;;;;14.65;8.30;;;28.10;68.80;;;;;;6158617;28;80566;-65
2022/06/29 15:45:18;;;;;;;13.30;8.70;;;28.10;68.50;;;;;;6153553;28;80438;-65
2022/06/29 15:48:19;;;;;;;10.48;8.30;;;28.10;69.30;;;;;;6150612;28;81438;-64